createdAt,value
2019-01-29T00:02:04.362Z,5.67
2019-01-29T00:04:32.713Z,4.77
2019-01-29T00:07:01.061Z,5.03
2019-01-29T00:09:29.399Z,5.33
2019-01-29T00:11:57.829Z,4.23
2019-01-29T00:14:26.891Z,4.28
2019-01-29T00:16:55.311Z,4.50
2019-01-29T00:19:23.652Z,4.87
2019-01-29T00:21:51.995Z,4.00
2019-01-29T00:24:20.352Z,4.10
2019-01-29T00:26:48.730Z,4.22
2019-01-29T00:29:17.082Z,3.97
2019-01-29T00:31:45.435Z,4.03
2019-01-29T00:34:13.795Z,3.90
2019-01-29T00:36:42.166Z,4.58
2019-01-29T00:39:10.783Z,3.70
2019-01-29T00:41:39.192Z,4.07
2019-01-29T00:44:07.566Z,4.30
2019-01-29T00:46:36.109Z,4.33
2019-01-29T00:49:04.545Z,4.22
2019-01-29T00:51:32.875Z,4.13
2019-01-29T00:54:02.153Z,4.27
2019-01-29T00:56:30.488Z,4.40
2019-01-29T00:58:58.865Z,4.40
2019-01-29T01:01:27.282Z,4.42
2019-01-29T01:03:55.632Z,3.90
2019-01-29T01:06:23.984Z,4.10
2019-01-29T01:08:53.446Z,4.20
2019-01-29T01:11:21.844Z,3.87
2019-01-29T01:13:50.233Z,4.30
2019-01-29T01:16:18.915Z,3.98
2019-01-29T01:18:47.265Z,3.90
2019-01-29T01:21:15.619Z,3.90
2019-01-29T01:23:44.027Z,3.50
2019-01-29T01:26:12.357Z,3.87
2019-01-29T01:28:40.706Z,3.85
2019-01-29T01:31:09.040Z,3.70
2019-01-29T01:33:38.355Z,4.03
2019-01-29T01:36:06.688Z,3.63
2019-01-29T01:38:35.049Z,3.80
2019-01-29T01:41:03.377Z,4.00
2019-01-29T01:43:31.728Z,3.80
2019-01-29T01:46:19.438Z,4.00
2019-01-29T01:48:47.783Z,3.50
2019-01-29T01:51:16.185Z,3.57
2019-01-29T01:53:44.579Z,3.80
2019-01-29T01:56:12.974Z,4.22
2019-01-29T01:58:41.332Z,3.83
2019-01-29T02:01:09.766Z,4.15
2019-01-29T02:03:38.353Z,4.00
2019-01-29T02:06:06.683Z,4.10
2019-01-29T02:08:35.067Z,3.97
2019-01-29T02:11:03.449Z,3.70
2019-01-29T02:13:31.879Z,3.93
2019-01-29T02:16:00.246Z,3.87
2019-01-29T02:18:28.593Z,3.73
2019-01-29T02:20:57.092Z,3.00
2019-01-29T02:23:25.450Z,3.13
2019-01-29T02:25:53.775Z,3.70
2019-01-29T02:28:22.107Z,3.77
2019-01-29T02:30:50.463Z,4.20
2019-01-29T02:33:18.869Z,4.00
2019-01-29T02:35:47.214Z,4.10
2019-01-29T02:38:15.570Z,4.63
2019-01-29T02:40:43.910Z,4.00
2019-01-29T02:43:12.246Z,4.07
2019-01-29T02:45:40.612Z,4.00
2019-01-29T02:48:09.017Z,4.30
2019-01-29T02:50:56.717Z,4.00
2019-01-29T02:53:25.079Z,4.23
2019-01-29T02:55:53.408Z,4.10
2019-01-29T02:58:21.782Z,4.73
2019-01-29T03:00:50.188Z,4.12
2019-01-29T03:03:31.311Z,4.30
2019-01-29T03:05:59.645Z,4.50
2019-01-29T03:08:28.125Z,4.20
2019-01-29T03:10:56.451Z,4.90
2019-01-29T03:13:25.751Z,4.53
2019-01-29T03:15:54.080Z,4.60
2019-01-29T03:18:22.412Z,3.97
2019-01-29T03:20:50.831Z,4.33
2019-01-29T03:23:27.259Z,4.45
2019-01-29T03:25:49.307Z,4.70
2019-01-29T03:28:17.717Z,4.53
2019-01-29T03:30:46.067Z,4.80
2019-01-29T03:33:14.508Z,4.77
2019-01-29T03:35:42.826Z,4.22
2019-01-29T03:38:11.221Z,4.40
2019-01-29T03:40:40.648Z,4.57
2019-01-29T03:43:09.036Z,4.73
2019-01-29T03:45:37.430Z,4.90
2019-01-29T03:48:05.837Z,5.03
2019-01-29T03:50:34.292Z,4.63
2019-01-29T03:53:02.624Z,4.83
2019-01-29T03:55:30.971Z,4.40
2019-01-29T03:57:59.343Z,4.63
2019-01-29T04:00:28.422Z,4.30
2019-01-29T04:02:56.902Z,4.50
2019-01-29T04:05:25.264Z,4.90
2019-01-29T04:07:53.600Z,4.23
2019-01-29T04:10:22.016Z,4.07
2019-01-29T04:12:50.460Z,3.47
2019-01-29T04:15:20.554Z,3.80
2019-01-29T04:17:57.040Z,3.63
2019-01-29T04:20:26.849Z,3.70
2019-01-29T04:22:55.231Z,3.87
2019-01-29T04:25:23.682Z,4.20
2019-01-29T04:27:52.085Z,4.47
2019-01-29T04:30:22.079Z,4.00
2019-01-29T04:32:50.461Z,3.83
2019-01-29T04:35:19.005Z,4.30
2019-01-29T04:37:47.460Z,4.00
2019-01-29T04:40:17.664Z,4.57
2019-01-29T04:42:46.103Z,4.23
2019-01-29T04:45:16.066Z,4.63
2019-01-29T04:47:44.656Z,5.30
2019-01-29T04:50:16.179Z,4.57
2019-01-29T04:52:44.613Z,4.55
2019-01-29T04:55:15.000Z,5.00
2019-01-29T04:57:43.332Z,5.50
2019-01-29T05:00:14.600Z,4.67
2019-01-29T05:02:42.928Z,4.90
2019-01-29T05:05:11.550Z,5.10
2019-01-29T05:07:39.945Z,5.30
2019-01-29T05:10:11.153Z,5.17
2019-01-29T05:12:39.482Z,5.03
2019-01-29T05:15:10.675Z,5.67
2019-01-29T05:17:39.012Z,5.27
2019-01-29T05:20:10.406Z,5.53
2019-01-29T05:22:38.745Z,5.22
2019-01-29T05:25:09.090Z,4.83
2019-01-29T05:27:37.452Z,5.40
2019-01-29T05:30:09.123Z,4.97
2019-01-29T05:32:37.486Z,4.90
2019-01-29T05:35:07.397Z,6.90
2019-01-29T05:37:35.732Z,4.92
2019-01-29T05:40:10.107Z,5.30
2019-01-29T05:42:38.464Z,5.30
2019-01-29T05:45:10.150Z,5.42
2019-01-29T05:47:38.621Z,5.43
2019-01-29T05:50:09.834Z,6.07
2019-01-29T05:52:38.228Z,5.73
2019-01-29T05:55:08.197Z,5.60
2019-01-29T05:57:36.635Z,5.75
2019-01-29T06:00:14.062Z,6.00
2019-01-29T06:02:42.428Z,6.00
2019-01-29T06:05:11.333Z,6.37
2019-01-29T06:07:39.696Z,6.00
2019-01-29T06:10:13.394Z,6.63
2019-01-29T06:12:41.780Z,6.63
2019-01-29T06:15:18.266Z,5.93
2019-01-29T06:17:46.930Z,5.73
2019-01-29T06:20:18.728Z,5.10
2019-01-29T06:22:47.296Z,5.23
2019-01-29T06:25:15.664Z,5.53
2019-01-29T06:27:44.021Z,5.40
2019-01-29T06:30:14.799Z,5.73
2019-01-29T06:32:43.270Z,5.80
2019-01-29T06:35:18.692Z,6.13
2019-01-29T06:37:47.064Z,5.80
2019-01-29T06:40:24.267Z,6.20
2019-01-29T06:42:52.727Z,6.67
2019-01-29T06:45:22.513Z,6.40
2019-01-29T06:47:51.011Z,6.30
2019-01-29T06:50:26.298Z,6.27
2019-01-29T06:52:55.767Z,6.53
2019-01-29T06:55:25.183Z,5.60
2019-01-29T06:57:55.393Z,5.17
2019-01-29T07:00:28.395Z,5.05
2019-01-29T07:02:57.026Z,5.00
2019-01-29T07:05:25.362Z,5.37
2019-01-29T07:07:53.723Z,5.07
2019-01-29T07:10:23.466Z,4.90
2019-01-29T07:12:51.844Z,5.63
2019-01-29T07:15:42.735Z,5.63
2019-01-29T07:18:27.638Z,5.30
2019-01-29T07:20:55.976Z,7.37
2019-01-29T07:23:24.383Z,7.40
2019-01-29T07:25:52.717Z,7.37
2019-01-29T07:28:21.079Z,6.60
2019-01-29T07:30:49.471Z,6.57
2019-01-29T07:33:17.832Z,6.37
2019-01-29T07:35:46.240Z,7.30
2019-01-29T07:38:14.594Z,7.17
2019-01-29T07:40:42.941Z,6.50
2019-01-29T07:43:11.355Z,6.67
2019-01-29T07:45:39.723Z,6.10
2019-01-29T07:48:08.079Z,5.90
2019-01-29T07:50:36.474Z,6.93
2019-01-29T07:53:05.157Z,6.13
2019-01-29T07:55:33.580Z,5.83
2019-01-29T07:58:01.907Z,5.13
2019-01-29T08:00:49.603Z,5.23
2019-01-29T08:03:17.978Z,5.63
2019-01-29T08:05:46.356Z,5.67
2019-01-29T08:08:14.804Z,5.70
2019-01-29T08:10:43.135Z,5.77
2019-01-29T08:13:11.546Z,5.90
2019-01-29T08:15:40.623Z,5.97
2019-01-29T08:18:28.342Z,5.30
2019-01-29T08:20:56.716Z,5.70
2019-01-29T08:23:44.421Z,5.83
2019-01-29T08:26:12.781Z,4.90
2019-01-29T08:28:41.120Z,4.97
2019-01-29T08:31:28.813Z,4.10
2019-01-29T08:33:57.162Z,4.10
2019-01-29T08:36:26.337Z,4.33
2019-01-29T08:38:54.694Z,4.70
2019-01-29T08:41:23.093Z,5.13
2019-01-29T08:43:51.449Z,4.90
2019-01-29T08:46:19.896Z,5.10
2019-01-29T08:48:48.321Z,4.10
2019-01-29T08:51:16.672Z,3.70
2019-01-29T08:53:45.046Z,3.70
2019-01-29T08:56:13.439Z,3.65
2019-01-29T08:58:41.804Z,3.65
2019-01-29T09:01:10.197Z,3.50
2019-01-29T09:03:38.547Z,3.77
2019-01-29T09:06:06.871Z,4.20
2019-01-29T09:08:35.215Z,4.30
2019-01-29T09:11:03.691Z,4.47
2019-01-29T09:13:32.057Z,4.73
2019-01-29T09:16:01.098Z,4.00
2019-01-29T09:18:29.451Z,4.27
2019-01-29T09:20:57.875Z,3.20
2019-01-29T09:23:26.270Z,3.40
2019-01-29T09:25:54.591Z,4.15
2019-01-29T09:28:23.092Z,4.67
2019-01-29T09:30:51.422Z,2.73
2019-01-29T09:33:19.831Z,2.70
2019-01-29T09:35:48.211Z,2.70
2019-01-29T09:38:16.582Z,3.57
2019-01-29T09:40:45.003Z,3.23
2019-01-29T09:43:26.395Z,2.60
2019-01-29T09:46:14.323Z,2.90
2019-01-29T09:48:42.728Z,2.60
2019-01-29T09:51:11.059Z,3.30
2019-01-29T09:53:39.461Z,2.90
2019-01-29T09:56:07.783Z,3.07
2019-01-29T09:58:36.144Z,3.40
2019-01-29T10:01:05.007Z,3.52
2019-01-29T10:03:33.374Z,3.47
2019-01-29T10:06:01.710Z,3.43
2019-01-29T10:08:30.085Z,4.30
2019-01-29T10:10:58.459Z,3.60
2019-01-29T10:13:26.870Z,3.47
2019-01-29T10:15:55.242Z,3.20
2019-01-29T10:18:23.635Z,3.30
2019-01-29T10:20:51.958Z,3.40
2019-01-29T10:23:20.283Z,3.53
2019-01-29T10:25:48.638Z,3.47
2019-01-29T10:28:16.987Z,3.40
2019-01-29T10:30:45.391Z,3.30
2019-01-29T10:33:13.754Z,3.00
2019-01-29T10:35:42.105Z,3.70
2019-01-29T10:38:10.440Z,3.83
2019-01-29T10:40:38.796Z,3.50
2019-01-29T10:43:07.199Z,4.03
2019-01-29T10:45:36.546Z,3.63
2019-01-29T10:48:05.332Z,3.77
2019-01-29T10:50:33.789Z,3.53
2019-01-29T10:53:02.186Z,7.77
2019-01-29T10:55:30.612Z,4.15
2019-01-29T10:57:59.108Z,3.33
2019-01-29T11:00:33.652Z,3.20
2019-01-29T11:03:02.246Z,3.40
2019-01-29T11:05:30.875Z,3.00
2019-01-29T11:07:59.321Z,2.80
2019-01-29T11:10:27.743Z,2.77
2019-01-29T11:12:56.080Z,3.37
2019-01-29T11:15:39.025Z,2.77
2019-01-29T11:18:10.063Z,2.30
2019-01-29T11:20:38.697Z,2.30
2019-01-29T11:23:07.031Z,4.57
2019-01-29T11:25:35.468Z,2.47
2019-01-29T11:28:03.815Z,2.10
2019-01-29T11:30:33.119Z,2.57
2019-01-29T11:33:01.489Z,1.73
2019-01-29T11:35:30.583Z,2.65
2019-01-29T11:37:59.010Z,1.70
2019-01-29T11:40:29.816Z,1.90
2019-01-29T11:42:58.384Z,2.20
2019-01-29T11:45:29.449Z,2.67
2019-01-29T11:47:57.785Z,2.53
2019-01-29T11:50:26.298Z,3.37
2019-01-29T11:52:54.637Z,2.30
2019-01-29T11:55:23.185Z,2.30
2019-01-29T11:57:51.546Z,2.60
2019-01-29T12:00:30.207Z,2.50
2019-01-29T12:02:58.704Z,3.50
2019-01-29T12:05:27.054Z,2.73
2019-01-29T12:07:55.380Z,3.70
2019-01-29T12:10:23.796Z,3.47
2019-01-29T12:12:52.203Z,2.40
2019-01-29T12:15:21.644Z,3.17
2019-01-29T12:17:50.063Z,3.63
2019-01-29T12:20:19.769Z,3.67
2019-01-29T12:22:48.969Z,11.45
2019-01-29T12:25:17.554Z,1.90
2019-01-29T12:27:45.938Z,2.10
2019-01-29T12:30:22.183Z,1.98
2019-01-29T12:32:51.239Z,2.00
2019-01-29T12:35:20.006Z,2.20
2019-01-29T12:37:48.340Z,1.90
2019-01-29T12:40:17.669Z,1.80
2019-01-29T12:42:46.105Z,2.00
2019-01-29T12:45:16.871Z,2.20
2019-01-29T12:47:45.331Z,2.47
2019-01-29T12:50:19.378Z,2.02
2019-01-29T12:52:49.481Z,2.50
2019-01-29T12:55:17.832Z,1.93
2019-01-29T12:57:46.996Z,2.00
2019-01-29T13:00:18.544Z,2.27
2019-01-29T13:02:47.005Z,1.80
2019-01-29T13:05:15.447Z,1.90
2019-01-29T13:07:44.036Z,2.87
2019-01-29T13:10:15.751Z,3.00
2019-01-29T13:16:05.712Z,2.40
2019-01-29T13:18:53.393Z,3.30
2019-01-29T13:21:21.755Z,2.10
2019-01-29T13:24:09.499Z,2.20
2019-01-29T13:26:38.046Z,2.10
2019-01-29T13:29:06.465Z,2.27
2019-01-29T13:31:34.923Z,1.87
2019-01-29T13:34:03.243Z,2.07
2019-01-29T13:36:31.607Z,1.90
2019-01-29T13:38:59.985Z,1.90
2019-01-29T13:41:28.429Z,1.90
2019-01-29T13:43:56.802Z,1.80
2019-01-29T13:46:25.275Z,1.90
2019-01-29T13:48:53.605Z,1.60
2019-01-29T13:51:21.932Z,1.90
2019-01-29T13:53:50.291Z,1.80
2019-01-29T13:56:18.661Z,1.97
2019-01-29T13:58:47.005Z,2.20
2019-01-29T14:01:15.457Z,1.77
2019-01-29T14:03:43.816Z,2.70
2019-01-29T14:06:12.166Z,2.43
2019-01-29T14:08:40.500Z,2.03
2019-01-29T14:11:08.873Z,2.40
2019-01-29T14:13:37.216Z,2.40
2019-01-29T14:16:06.713Z,1.80
2019-01-29T14:18:35.107Z,1.87
2019-01-29T14:21:03.495Z,2.00
2019-01-29T14:23:31.853Z,1.90
2019-01-29T14:26:00.291Z,2.20
2019-01-29T14:28:28.711Z,1.90
2019-01-29T14:30:57.063Z,2.08
2019-01-29T14:33:25.943Z,2.23
2019-01-29T14:35:54.354Z,2.00
2019-01-29T14:38:31.702Z,1.90
2019-01-29T14:41:00.805Z,1.50
2019-01-29T14:43:38.336Z,1.70
2019-01-29T14:46:06.860Z,1.80
2019-01-29T14:48:35.196Z,1.80
2019-01-29T14:51:03.631Z,1.92
2019-01-29T14:53:31.963Z,1.80
2019-01-29T14:56:00.345Z,2.20
2019-01-29T14:58:28.684Z,4.33
2019-01-29T15:00:57.131Z,2.20
2019-01-29T15:03:25.451Z,1.80
2019-01-29T15:05:53.860Z,2.03
2019-01-29T15:08:23.187Z,2.10
2019-01-29T15:10:51.600Z,2.00
2019-01-29T15:13:20.045Z,2.13
2019-01-29T15:15:50.015Z,2.90
2019-01-29T15:18:29.109Z,2.20
2019-01-29T15:20:57.560Z,2.10
2019-01-29T15:23:25.882Z,2.10
2019-01-29T15:25:54.285Z,1.90
2019-01-29T15:28:22.655Z,2.20
2019-01-29T15:30:50.983Z,2.00
2019-01-29T15:33:19.310Z,2.07
2019-01-29T15:35:47.781Z,1.90
2019-01-29T15:38:16.147Z,2.13
2019-01-29T15:40:44.478Z,2.30
2019-01-29T15:43:12.974Z,2.30
2019-01-29T15:45:41.402Z,2.20
2019-01-29T15:48:09.740Z,2.20
2019-01-29T15:50:38.234Z,2.57
2019-01-29T15:53:07.747Z,2.10
2019-01-29T15:55:36.304Z,2.33
2019-01-29T15:58:07.715Z,2.10
2019-01-29T16:00:39.678Z,2.40
2019-01-29T16:03:08.175Z,2.20
2019-01-29T16:05:38.909Z,2.40
2019-01-29T16:08:10.667Z,2.67
2019-01-29T16:10:40.427Z,2.27
2019-01-29T16:13:09.743Z,2.53
2019-01-29T16:15:38.511Z,4.80
2019-01-29T16:18:07.394Z,3.50
2019-01-29T16:20:35.725Z,3.40
2019-01-29T16:23:04.246Z,4.30
2019-01-29T16:25:34.258Z,3.40
2019-01-29T16:28:02.643Z,2.77
2019-01-29T16:30:34.174Z,2.90
2019-01-29T16:33:02.636Z,2.43
2019-01-29T16:35:38.710Z,3.00
2019-01-29T16:38:08.475Z,2.40
2019-01-29T16:40:39.108Z,2.17
2019-01-29T16:43:07.496Z,2.60
2019-01-29T16:45:36.671Z,2.33
2019-01-29T16:48:06.955Z,2.30
2019-01-29T16:50:35.369Z,2.30
2019-01-29T16:53:04.303Z,2.40
2019-01-29T16:55:32.807Z,2.33
2019-01-29T16:58:01.161Z,2.42
2019-01-29T17:00:34.795Z,2.40
2019-01-29T17:03:03.299Z,2.00
2019-01-29T17:05:31.795Z,2.43
2019-01-29T17:08:00.526Z,2.10
2019-01-29T17:10:30.925Z,1.90
2019-01-29T17:12:59.304Z,4.93
2019-01-29T17:15:30.389Z,4.25
2019-01-29T17:17:59.979Z,3.10
2019-01-29T17:20:30.987Z,2.13
2019-01-29T17:22:59.397Z,1.70
2019-01-29T17:25:27.847Z,1.80
2019-01-29T17:27:56.311Z,2.00
2019-01-29T17:30:36.932Z,2.25
2019-01-29T17:33:05.992Z,1.90
2019-01-29T17:35:35.203Z,2.37
2019-01-29T17:38:03.777Z,4.00
2019-01-29T17:40:32.106Z,3.20
2019-01-29T17:43:00.585Z,3.13
2019-01-29T17:45:32.106Z,2.87
2019-01-29T17:48:00.729Z,2.40
2019-01-29T17:50:34.931Z,3.75
2019-01-29T17:53:03.292Z,3.42
2019-01-29T17:55:32.816Z,3.10
2019-01-29T17:58:01.576Z,3.27
2019-01-29T18:00:32.141Z,3.63
2019-01-29T18:03:00.715Z,3.33
2019-01-29T18:05:29.119Z,8.03
2019-01-29T18:07:57.534Z,10.15
2019-01-29T18:10:25.909Z,9.10
2019-01-29T18:12:54.485Z,7.90
2019-01-29T18:15:25.161Z,6.67
2019-01-29T18:17:53.502Z,7.17
2019-01-29T18:20:21.955Z,6.53
2019-01-29T18:22:50.382Z,4.47
2019-01-29T18:25:18.884Z,5.53
2019-01-29T18:27:47.327Z,5.83
2019-01-29T18:30:27.313Z,6.07
2019-01-29T18:32:55.700Z,5.40
2019-01-29T18:35:24.166Z,6.07
2019-01-29T18:37:52.565Z,6.60
2019-01-29T18:40:41.673Z,5.07
2019-01-29T18:43:10.057Z,10.97
2019-01-29T18:45:38.412Z,11.35
2019-01-29T18:48:06.844Z,10.83
2019-01-29T18:50:35.191Z,9.20
2019-01-29T18:53:03.638Z,8.20
2019-01-29T18:55:32.015Z,6.13
2019-01-29T18:58:00.350Z,4.80
2019-01-29T19:00:28.797Z,4.75
2019-01-29T19:02:57.165Z,4.40
2019-01-29T19:05:26.603Z,3.93
2019-01-29T19:07:55.695Z,3.93
2019-01-29T19:10:24.232Z,4.13
2019-01-29T19:12:52.673Z,3.87
2019-01-29T19:15:23.306Z,3.80
2019-01-29T19:17:51.722Z,4.08
2019-01-29T19:20:22.363Z,3.70
2019-01-29T19:22:50.744Z,4.13
2019-01-29T19:25:19.110Z,4.80
2019-01-29T19:27:47.447Z,4.67
2019-01-29T19:30:18.749Z,4.45
2019-01-29T19:32:47.078Z,3.58
2019-01-29T19:35:15.529Z,3.85
2019-01-29T19:37:43.864Z,4.70
2019-01-29T19:40:14.539Z,4.63
2019-01-29T19:42:42.905Z,4.07
2019-01-29T19:45:22.790Z,4.10
2019-01-29T19:47:51.178Z,4.37
2019-01-29T19:50:22.277Z,4.83
2019-01-29T19:52:50.955Z,4.62
2019-01-29T19:55:19.567Z,4.50
2019-01-29T19:57:47.906Z,4.07
2019-01-29T20:00:22.152Z,5.13
2019-01-29T20:02:50.554Z,4.43
2019-01-29T20:05:19.202Z,4.28
2019-01-29T20:07:47.559Z,4.45
2019-01-29T20:10:17.638Z,4.72
2019-01-29T20:12:46.076Z,4.50
2019-01-29T20:15:17.113Z,4.63
2019-01-29T20:17:46.301Z,4.73
2019-01-29T20:20:17.787Z,4.83
2019-01-29T20:22:46.194Z,4.33
2019-01-29T20:25:14.516Z,5.08
2019-01-29T20:27:42.911Z,4.50
2019-01-29T20:30:14.763Z,4.97
2019-01-29T20:32:52.882Z,4.53
2019-01-29T20:35:13.780Z,4.53
2019-01-29T20:37:42.112Z,4.60
2019-01-29T20:40:19.264Z,5.10
2019-01-29T20:42:47.730Z,4.43
2019-01-29T20:45:16.360Z,4.83
2019-01-29T20:47:45.569Z,4.97
2019-01-29T20:50:25.493Z,4.93
2019-01-29T20:53:13.219Z,5.05
2019-01-29T20:55:41.625Z,4.87
2019-01-29T20:58:09.997Z,5.20
2019-01-29T21:00:40.872Z,5.13
2019-01-29T21:03:09.278Z,5.23
2019-01-29T21:05:37.754Z,5.43
2019-01-29T21:08:06.299Z,5.43
2019-01-29T21:10:34.774Z,5.40
2019-01-29T21:13:03.127Z,5.90
2019-01-29T21:15:37.966Z,5.55
2019-01-29T21:18:01.563Z,5.53
2019-01-29T21:20:33.080Z,5.00
2019-01-29T21:23:01.471Z,5.40
2019-01-29T21:25:29.848Z,5.23
2019-01-29T21:27:58.179Z,4.90
2019-01-29T21:30:34.709Z,5.25
2019-01-29T21:33:03.078Z,5.27
2019-01-29T21:35:31.533Z,5.55
2019-01-29T21:37:59.899Z,5.60
2019-01-29T21:40:28.272Z,5.57
2019-01-29T21:42:56.617Z,5.00
2019-01-29T21:45:25.077Z,5.30
2019-01-29T21:47:55.734Z,5.35
2019-01-29T21:50:26.720Z,5.47
2019-01-29T21:52:55.051Z,5.53
2019-01-29T21:55:23.473Z,4.50
2019-01-29T21:58:11.149Z,5.40
2019-01-29T22:00:43.229Z,5.17
2019-01-29T22:03:11.954Z,4.60
2019-01-29T22:08:59.409Z,6.80
2019-01-29T22:11:27.775Z,6.63
2019-01-29T22:13:56.233Z,5.27
2019-01-29T22:16:24.650Z,5.57
2019-01-29T22:18:52.996Z,6.40
2019-01-29T22:21:21.610Z,6.30
2019-01-29T22:23:50.034Z,7.10
2019-01-29T22:26:18.371Z,5.77
2019-01-29T22:28:46.715Z,5.87
2019-01-29T22:31:15.075Z,6.50
2019-01-29T22:33:43.420Z,5.65
2019-01-29T22:36:11.844Z,6.00
2019-01-29T22:38:40.180Z,7.10
2019-01-29T22:41:08.536Z,7.60
2019-01-29T22:43:49.931Z,7.50
2019-01-29T22:46:37.631Z,7.13
2019-01-29T22:49:19.260Z,6.80
2019-01-29T22:51:47.618Z,8.23
2019-01-29T22:54:15.985Z,7.90
2019-01-29T22:56:44.348Z,9.40
2019-01-29T22:59:12.678Z,6.77
2019-01-29T23:02:00.368Z,7.57
2019-01-29T23:04:29.090Z,8.27
2019-01-29T23:06:57.491Z,8.80
2019-01-29T23:09:25.903Z,10.23
2019-01-29T23:11:54.227Z,9.93
2019-01-29T23:14:22.599Z,11.83
2019-01-29T23:16:51.033Z,14.23
2019-01-29T23:19:19.457Z,14.23
2019-01-29T23:21:47.815Z,11.00
2019-01-29T23:24:16.186Z,11.20
2019-01-29T23:26:44.545Z,10.23
2019-01-29T23:29:12.903Z,11.77
2019-01-29T23:31:41.265Z,12.53
2019-01-29T23:34:09.638Z,10.73
2019-01-29T23:36:38.895Z,11.75
2019-01-29T23:39:07.813Z,12.15
2019-01-29T23:41:36.324Z,11.47
2019-01-29T23:44:05.059Z,11.60
2019-01-29T23:46:33.399Z,11.73
2019-01-29T23:49:01.812Z,10.77
2019-01-29T23:51:30.232Z,12.35
2019-01-29T23:53:58.566Z,11.73
2019-01-29T23:56:26.903Z,11.00
2019-01-29T23:58:55.266Z,10.70
